Time;durP1;ratioP1;P1;durP2;ratioP2;P2;SDS_P1;SDS_P2;PMS_P1;PMS_P2;Temp;Humidity;BMP_temperature;BMP_pressure;BME280_temperature;BME280_humidity;BME280_pressure;Samples;Min_cycle;Max_cycle;Signal;HPM_P1;HPM_P2
2022/10/15 00:01:41;;;;;;;55.38;28.88;;;12.50;99.90;;;;;;5055265;28;20094;-80
2022/10/15 00:04:06;;;;;;;55.72;27.25;;;12.50;99.90;;;;;;5055324;28;21837;-79
2022/10/15 00:06:32;;;;;;;57.20;26.05;;;12.50;99.90;;;;;;5038590;28;20549;-80
2022/10/15 00:08:58;;;;;;;58.33;26.40;;;12.40;99.90;;;;;;5055239;28;20124;-80
2022/10/15 00:11:26;;;;;;;60.90;27.52;;;12.40;99.90;;;;;;5055123;28;20078;-79
2022/10/15 00:13:54;;;;;;;66.53;28.58;;;12.40;99.90;;;;;;5055349;28;20036;-80
2022/10/15 00:16:22;;;;;;;52.60;26.98;;;12.40;99.90;;;;;;5069173;28;20044;-80
2022/10/15 00:18:50;;;;;;;60.47;29.27;;;12.40;99.90;;;;;;5071860;28;20040;-80
2022/10/15 00:21:18;;;;;;;64.35;29.08;;;12.40;99.90;;;;;;5071614;28;20162;-79
2022/10/15 00:23:44;;;;;;;62.72;29.05;;;12.30;99.90;;;;;;5072180;28;20044;-79
2022/10/15 00:26:13;;;;;;;54.92;27.33;;;12.30;99.90;;;;;;5071195;28;20036;-79
2022/10/15 00:28:38;;;;;;;73.68;32.00;;;12.30;99.90;;;;;;5071782;28;20129;-79
2022/10/15 00:31:10;;;;;;;59.53;29.70;;;12.40;99.90;;;;;;5054875;28;20648;-80
2022/10/15 00:33:36;;;;;;;60.08;29.90;;;12.30;99.90;;;;;;5071318;28;20044;-80
2022/10/15 00:36:06;;;;;;;63.85;29.58;;;12.50;99.90;;;;;;5071467;28;20055;-80
2022/10/15 00:38:33;;;;;;;60.45;28.45;;;12.30;99.90;;;;;;5071644;28;20636;-80
2022/10/15 00:40:59;;;;;;;59.78;27.65;;;12.30;99.90;;;;;;5054929;28;20119;-80
2022/10/15 00:43:42;;;;;;;60.47;26.95;;;12.30;99.90;;;;;;5070490;28;20044;-80
2022/10/15 00:46:32;;;;;;;54.75;28.23;;;12.30;99.90;;;;;;5071253;28;20063;-80
2022/10/15 00:49:08;;;;;;;59.15;28.33;;;12.20;99.90;;;;;;5071476;28;20052;-80
2022/10/15 00:51:46;;;;;;;55.17;27.05;;;12.20;99.90;;;;;;5071510;28;20047;-80
2022/10/15 00:54:14;;;;;;;59.55;28.95;;;12.20;99.90;;;;;;5054247;28;20043;-80
2022/10/15 00:56:43;;;;;;;63.53;30.30;;;12.20;99.90;;;;;;5071070;28;20451;-80
2022/10/15 00:59:11;;;;;;;62.10;31.67;;;12.20;99.90;;;;;;5068503;28;20115;-80
2022/10/15 01:01:37;;;;;;;62.53;28.92;;;12.20;99.90;;;;;;5054278;28;20040;-80
2022/10/15 01:04:06;;;;;;;63.33;28.70;;;12.20;99.90;;;;;;5054063;28;20043;-80
2022/10/15 01:06:32;;;;;;;63.15;29.73;;;12.20;99.90;;;;;;5071141;28;20082;-80
2022/10/15 01:08:58;;;;;;;64.95;28.40;;;12.20;99.90;;;;;;5070892;28;20040;-80
2022/10/15 01:11:47;;;;;;;71.20;30.83;;;12.20;99.90;;;;;;5054128;28;20040;-80
2022/10/15 01:14:37;;;;;;;51.95;26.33;;;12.20;99.90;;;;;;5069448;28;20028;-80
2022/10/15 01:17:35;;;;;;;54.65;26.88;;;12.20;99.90;;;;;;5068631;28;20039;-77
2022/10/15 01:20:16;;;;;;;62.00;28.92;;;12.20;99.90;;;;;;5057685;28;20378;-79
2022/10/15 01:23:10;;;;;;;56.70;28.02;;;12.10;99.90;;;;;;5068247;28;20032;-78
2022/10/15 01:26:00;;;;;;;62.42;29.88;;;12.20;99.90;;;;;;5054077;28;20542;-79
2022/10/15 01:29:02;;;;;;;60.72;28.63;;;12.20;99.90;;;;;;5070192;28;20037;-79
2022/10/15 01:31:47;;;;;;;54.30;27.38;;;12.20;99.90;;;;;;5069818;28;20552;-79
2022/10/15 01:34:50;;;;;;;55.58;28.35;;;12.20;99.90;;;;;;5069840;28;20036;-79
2022/10/15 01:37:28;;;;;;;59.47;26.27;;;12.20;99.90;;;;;;5068095;28;20053;-79
2022/10/15 01:40:16;;;;;;;54.58;27.70;;;12.20;99.90;;;;;;5067337;28;20392;-79
2022/10/15 01:42:57;;;;;;;;;;;12.20;99.90;;;;;;5070902;28;20094;-79
2022/10/15 01:45:39;;;;;;;56.92;26.20;;;12.20;99.90;;;;;;5070037;28;19916;-79
2022/10/15 01:48:10;;;;;;;59.70;27.30;;;12.20;99.90;;;;;;5069955;28;20036;-79
2022/10/15 01:50:47;;;;;;;60.33;28.20;;;12.20;99.90;;;;;;5068510;28;20499;-79
2022/10/15 01:53:25;;;;;;;56.63;26.90;;;12.20;99.90;;;;;;5069679;28;20040;-79
2022/10/15 01:55:53;;;;;;;57.90;26.55;;;12.20;99.90;;;;;;5070525;28;20169;-79
2022/10/15 01:58:20;;;;;;;56.72;26.33;;;12.20;99.90;;;;;;5052991;28;20045;-79
2022/10/15 02:00:47;;;;;;;54.63;27.88;;;12.20;99.90;;;;;;5053340;28;20108;-79
2022/10/15 02:03:13;;;;;;;57.95;27.00;;;12.20;99.90;;;;;;5053342;28;20600;-79
2022/10/15 02:06:08;;;;;;;53.80;26.25;;;12.20;99.90;;;;;;5070593;28;20094;-79
2022/10/15 02:08:48;;;;;;;58.05;27.92;;;12.10;99.90;;;;;;5051102;28;20045;-79
2022/10/15 02:11:15;;;;;;;55.22;27.08;;;12.10;99.90;;;;;;5070632;28;20494;-79
2022/10/15 02:14:08;;;;;;;61.88;28.65;;;12.10;99.90;;;;;;5053234;28;20036;-79
2022/10/15 02:16:42;;;;;;;57.63;25.85;;;12.20;99.90;;;;;;5068061;28;20112;-79
2022/10/15 02:19:19;;;;;;;59.70;27.38;;;12.10;99.90;;;;;;5070063;28;20135;-79
2022/10/15 02:22:17;;;;;;;50.45;25.95;;;12.10;99.90;;;;;;5070212;28;20079;-79
2022/10/15 02:25:02;;;;;;;58.38;27.13;;;12.10;99.90;;;;;;5065130;28;20052;-80
2022/10/15 02:27:31;;;;;;;57.25;27.40;;;12.10;99.90;;;;;;5069350;28;20519;-79
2022/10/15 02:30:00;;;;;;;54.60;27.33;;;12.10;99.90;;;;;;5052489;28;20395;-79
2022/10/15 02:32:27;;;;;;;56.00;28.33;;;12.10;99.90;;;;;;5052184;28;20075;-79
2022/10/15 02:34:53;;;;;;;59.15;27.77;;;12.10;99.90;;;;;;5052766;28;20111;-79
2022/10/15 02:37:23;;;;;;;49.78;26.70;;;12.10;99.90;;;;;;5069564;28;20060;-79
2022/10/15 02:39:49;;;;;;;58.05;27.88;;;12.10;99.90;;;;;;5069977;28;20040;-78
2022/10/15 02:42:17;;;;;;;58.17;27.20;;;12.10;99.90;;;;;;5052608;28;20094;-79
2022/10/15 02:44:43;;;;;;;57.60;26.33;;;12.10;99.90;;;;;;5069552;28;20044;-79
2022/10/15 02:47:09;;;;;;;53.22;25.55;;;12.10;99.90;;;;;;5053028;28;20169;-80
2022/10/15 02:49:34;;;;;;;52.83;25.67;;;12.10;99.90;;;;;;5053408;28;20040;-79
2022/10/15 02:52:00;;;;;;;50.53;25.90;;;12.10;99.90;;;;;;5073576;28;20047;-79
2022/10/15 02:54:26;;;;;;;54.90;26.13;;;12.10;99.90;;;;;;5056749;28;20044;-79
2022/10/15 02:56:51;;;;;;;58.67;25.97;;;12.10;99.90;;;;;;5056930;28;20288;-78
2022/10/15 02:59:18;;;;;;;53.88;26.33;;;12.10;99.90;;;;;;5040221;28;20120;-79
2022/10/15 03:01:44;;;;;;;58.30;28.30;;;12.10;99.90;;;;;;5073386;28;20036;-79
2022/10/15 03:04:10;;;;;;;47.45;25.55;;;12.10;99.90;;;;;;5073114;28;20185;-79
2022/10/15 03:06:36;;;;;;;49.10;26.03;;;12.10;99.90;;;;;;5040392;28;20073;-80
2022/10/15 03:09:02;;;;;;;54.30;27.85;;;12.10;99.90;;;;;;5073418;28;20808;-80
2022/10/15 03:11:27;;;;;;;50.60;25.95;;;12.10;99.90;;;;;;5072888;28;20100;-79
2022/10/15 03:13:53;;;;;;;54.03;26.53;;;12.10;99.90;;;;;;5039997;28;20124;-78
2022/10/15 03:16:19;;;;;;;52.97;27.67;;;12.10;99.90;;;;;;5056624;28;20774;-79
2022/10/15 03:18:44;;;;;;;49.75;25.42;;;12.10;99.90;;;;;;5040051;28;20098;-79
2022/10/15 03:21:10;;;;;;;60.83;29.33;;;12.10;99.90;;;;;;5072613;28;20033;-79
2022/10/15 03:23:36;;;;;;;49.83;26.13;;;12.10;99.90;;;;;;5056208;28;20674;-79
2022/10/15 03:26:01;;;;;;;58.67;28.27;;;12.20;99.90;;;;;;5023624;28;20047;-79
2022/10/15 03:28:27;;;;;;;59.13;29.43;;;12.10;99.90;;;;;;5072788;28;20286;-80
2022/10/15 03:30:53;;;;;;;58.47;26.63;;;12.00;99.90;;;;;;5073003;28;20046;-80
2022/10/15 03:33:18;;;;;;;53.95;27.83;;;12.00;99.90;;;;;;5038871;28;20041;-80
2022/10/15 03:35:44;;;;;;;54.67;27.77;;;12.00;99.90;;;;;;5055948;28;20087;-78
2022/10/15 03:38:10;;;;;;;54.00;27.35;;;12.00;99.90;;;;;;5056200;28;20051;-79
2022/10/15 03:40:36;;;;;;;55.10;26.92;;;12.00;99.90;;;;;;5072447;28;20041;-79
2022/10/15 03:43:01;;;;;;;57.45;27.08;;;12.00;99.90;;;;;;5072518;28;20047;-79
2022/10/15 03:45:27;;;;;;;50.93;26.00;;;12.00;99.90;;;;;;5055606;28;20480;-79
2022/10/15 03:47:53;;;;;;;53.97;26.90;;;12.00;99.90;;;;;;5055836;28;20853;-79
2022/10/15 03:50:19;;;;;;;53.97;25.98;;;12.00;99.90;;;;;;5055818;28;20033;-79
2022/10/15 03:52:45;;;;;;;52.05;27.10;;;12.00;99.90;;;;;;5039530;28;20063;-79
2022/10/15 03:55:11;;;;;;;48.35;25.40;;;12.00;99.90;;;;;;5072861;28;20098;-79
2022/10/15 03:57:37;;;;;;;55.60;26.20;;;12.00;99.90;;;;;;5072467;28;20068;-78
2022/10/15 04:00:05;;;;;;;55.15;26.55;;;12.00;99.90;;;;;;5055727;28;20037;-79
2022/10/15 04:02:32;;;;;;;56.58;26.23;;;12.00;99.90;;;;;;5070866;28;20385;-79
2022/10/15 04:04:57;;;;;;;;;;;12.00;99.90;;;;;;5056372;28;20449;-79
2022/10/15 04:07:23;;;;;;;51.13;25.13;;;12.10;99.90;;;;;;5055052;28;19916;-80
2022/10/15 04:09:49;;;;;;;59.10;26.00;;;12.10;99.90;;;;;;5055746;28;20060;-80
2022/10/15 04:12:16;;;;;;;51.58;25.02;;;12.10;99.90;;;;;;5055357;28;20376;-79
2022/10/15 04:14:42;;;;;;;55.00;28.38;;;12.10;99.90;;;;;;5071787;28;20055;-80
2022/10/15 04:17:08;;;;;;;60.42;28.15;;;12.10;99.90;;;;;;5038716;28;20028;-80
2022/10/15 04:19:33;;;;;;;52.65;25.92;;;12.10;99.90;;;;;;5054925;28;20077;-79
2022/10/15 04:21:59;;;;;;;62.10;27.47;;;12.10;99.90;;;;;;5069807;28;20484;-79
2022/10/15 04:24:25;;;;;;;60.30;29.00;;;12.20;99.90;;;;;;5071608;28;20286;-80
2022/10/15 04:26:51;;;;;;;58.97;27.85;;;12.20;99.90;;;;;;5055271;28;20808;-80
2022/10/15 04:29:16;;;;;;;54.60;26.17;;;12.20;99.90;;;;;;5055006;28;20048;-80
2022/10/15 04:31:42;;;;;;;65.35;29.60;;;12.20;99.90;;;;;;5070976;28;20430;-80
2022/10/15 04:34:09;;;;;;;60.97;28.58;;;12.10;99.90;;;;;;5052397;28;20037;-80
2022/10/15 04:36:34;;;;;;;56.45;28.65;;;12.10;99.90;;;;;;5070539;28;20047;-79
2022/10/15 04:39:00;;;;;;;57.03;26.50;;;12.10;99.90;;;;;;5071290;28;20032;-80
2022/10/15 04:41:26;;;;;;;58.85;27.17;;;12.10;99.90;;;;;;5054702;28;20119;-79
2022/10/15 04:43:52;;;;;;;61.10;27.17;;;12.00;99.90;;;;;;5054603;28;20062;-79
2022/10/15 04:46:18;;;;;;;64.03;29.23;;;12.00;99.90;;;;;;5037906;28;20354;-80
2022/10/15 04:48:44;;;;;;;63.75;29.75;;;12.00;99.90;;;;;;5054280;28;20293;-80
2022/10/15 04:51:14;;;;;;;56.15;27.95;;;12.00;99.90;;;;;;5054402;28;20119;-80
2022/10/15 04:53:40;;;;;;;60.47;27.60;;;12.00;99.90;;;;;;5070623;28;20055;-80
2022/10/15 04:56:09;;;;;;;53.13;26.90;;;12.00;99.90;;;;;;5054348;28;20488;-82
2022/10/15 04:58:35;;;;;;;55.13;27.05;;;12.00;99.90;;;;;;5068773;28;20032;-80
2022/10/15 05:01:06;;;;;;;62.72;29.25;;;12.00;99.90;;;;;;5054802;28;20058;-80
2022/10/15 05:03:32;;;;;;;52.53;25.95;;;11.90;99.90;;;;;;5054233;28;20076;-79
2022/10/15 05:06:06;;;;;;;51.17;26.50;;;11.90;99.90;;;;;;5068313;28;20044;-79
2022/10/15 05:08:33;;;;;;;56.60;27.60;;;11.90;99.90;;;;;;5070838;28;20040;-80
2022/10/15 05:11:19;;;;;;;59.85;28.58;;;11.90;99.90;;;;;;5070620;28;20055;-80
2022/10/15 05:13:45;;;;;;;54.97;27.75;;;11.90;99.90;;;;;;5067709;28;20044;-80
2022/10/15 05:16:16;;;;;;;51.85;27.00;;;11.80;99.90;;;;;;5054220;28;20046;-80
2022/10/15 05:18:44;;;;;;;54.67;28.10;;;11.90;99.90;;;;;;5071078;28;20504;-79
2022/10/15 05:21:10;;;;;;;56.53;28.58;;;11.80;99.90;;;;;;5070521;28;20044;-80
2022/10/15 05:23:37;;;;;;;;;;;11.80;99.90;;;;;;5070571;28;20044;-80
2022/10/15 05:26:05;;;;;;;55.90;27.10;;;11.80;99.90;;;;;;5070968;28;20291;-81
2022/10/15 05:28:30;;;;;;;53.53;25.83;;;11.80;99.90;;;;;;5053919;28;20071;-80
2022/10/15 05:31:03;;;;;;;59.13;28.10;;;11.80;99.90;;;;;;5070849;28;20141;-81
2022/10/15 05:33:29;;;;;;;64.53;30.33;;;11.80;99.90;;;;;;5053789;28;20040;-81
2022/10/15 05:35:54;;;;;;;63.70;29.20;;;11.90;99.90;;;;;;5053898;28;20047;-80
2022/10/15 05:38:20;;;;;;;59.33;27.20;;;11.80;99.90;;;;;;5053753;28;20314;-81
2022/10/15 05:40:49;;;;;;;67.32;29.13;;;11.80;99.90;;;;;;5053708;28;20037;-80
2022/10/15 05:43:15;;;;;;;61.45;29.17;;;11.90;99.90;;;;;;5053662;28;20048;-80
2022/10/15 05:45:43;;;;;;;61.95;28.80;;;11.90;99.90;;;;;;5053556;28;20036;-80
2022/10/15 05:48:09;;;;;;;64.72;31.85;;;11.80;99.90;;;;;;5070410;28;20097;-81
2022/10/15 05:50:35;;;;;;;71.70;31.10;;;11.80;99.90;;;;;;5053623;28;20044;-81
2022/10/15 05:53:00;;;;;;;66.80;30.37;;;11.80;99.90;;;;;;5070192;28;20391;-80
2022/10/15 05:55:26;;;;;;;68.07;30.97;;;11.70;99.90;;;;;;5054219;28;20098;-80
2022/10/15 05:57:51;;;;;;;65.07;30.50;;;11.80;99.90;;;;;;5070336;28;20283;-80
2022/10/15 06:00:17;;;;;;;75.40;31.63;;;11.80;99.90;;;;;;5053952;28;20033;-81
2022/10/15 06:02:43;;;;;;;67.37;29.47;;;11.80;99.90;;;;;;5069879;28;20370;-81
2022/10/15 06:05:09;;;;;;;74.35;31.02;;;11.80;99.90;;;;;;5070046;28;20751;-80
2022/10/15 06:07:34;;;;;;;61.70;29.75;;;11.80;99.90;;;;;;5053118;28;20067;-81
2022/10/15 06:10:00;;;;;;;72.82;32.05;;;11.80;99.90;;;;;;5053410;28;20113;-81
2022/10/15 06:12:26;;;;;;;69.78;29.83;;;11.90;99.90;;;;;;5034748;28;20099;-80
2022/10/15 06:14:51;;;;;;;74.47;32.55;;;11.90;99.90;;;;;;5053094;28;20040;-81
2022/10/15 06:17:17;;;;;;;77.20;32.83;;;11.90;99.90;;;;;;5070081;28;20396;-81
2022/10/15 06:19:42;;;;;;;71.93;30.83;;;11.90;99.90;;;;;;5052771;28;20786;-81
2022/10/15 06:22:08;;;;;;;75.07;33.22;;;11.90;99.90;;;;;;5069991;28;20403;-81
2022/10/15 06:24:34;;;;;;;73.87;30.87;;;11.90;99.90;;;;;;5036549;28;20105;-78
2022/10/15 06:26:59;;;;;;;70.88;28.75;;;11.90;99.90;;;;;;5073248;28;20467;-78
2022/10/15 06:29:25;;;;;;;70.97;32.07;;;12.00;99.90;;;;;;5073246;28;20508;-78
2022/10/15 06:31:51;;;;;;;75.07;33.65;;;11.90;99.90;;;;;;5055996;28;21540;-78
2022/10/15 06:34:16;;;;;;;74.83;32.90;;;11.90;99.90;;;;;;5040018;28;20071;-78
2022/10/15 06:36:42;;;;;;;70.85;30.83;;;12.00;99.90;;;;;;5072443;28;20048;-77
2022/10/15 06:39:08;;;;;;;74.90;31.93;;;12.00;99.90;;;;;;5038260;28;20029;-78
2022/10/15 06:41:34;;;;;;;71.07;31.25;;;12.00;99.90;;;;;;5056166;28;20043;-77
2022/10/15 06:43:59;;;;;;;79.00;34.60;;;12.00;99.90;;;;;;5072868;28;20526;-77
2022/10/15 06:46:25;;;;;;;70.28;31.98;;;12.10;99.90;;;;;;5072650;28;20025;-77
2022/10/15 06:48:51;;;;;;;72.35;30.90;;;12.10;99.90;;;;;;5071977;28;20093;-77
2022/10/15 06:51:17;;;;;;;73.82;35.38;;;12.10;99.90;;;;;;5055858;28;20071;-77
2022/10/15 06:53:43;;;;;;;75.53;33.20;;;12.10;99.90;;;;;;5055381;28;20071;-77
2022/10/15 06:56:08;;;;;;;76.17;31.63;;;12.10;99.90;;;;;;5055846;28;20283;-78
2022/10/15 06:58:34;;;;;;;77.13;33.97;;;12.10;99.90;;;;;;5072268;28;20674;-78
2022/10/15 07:01:02;;;;;;;72.18;31.27;;;12.10;99.90;;;;;;5038993;28;20036;-78
2022/10/15 07:03:28;;;;;;;72.90;31.40;;;12.10;99.90;;;;;;5071801;28;20046;-77
2022/10/15 07:05:53;;;;;;;66.80;29.50;;;12.20;99.90;;;;;;5072116;28;20496;-78
2022/10/15 07:08:19;;;;;;;69.00;31.20;;;12.20;99.90;;;;;;5055734;28;20044;-78
2022/10/15 07:10:45;;;;;;;73.88;33.90;;;12.20;99.90;;;;;;5071695;28;20068;-77
2022/10/15 07:13:11;;;;;;;68.97;32.00;;;12.20;99.90;;;;;;5072313;28;20412;-80
2022/10/15 07:15:36;;;;;;;75.78;31.35;;;12.20;99.90;;;;;;5053265;28;20165;-78
2022/10/15 07:18:02;;;;;;;72.55;34.05;;;12.30;99.90;;;;;;5072031;28;20036;-80
2022/10/15 07:20:29;;;;;;;80.20;32.55;;;12.30;99.90;;;;;;5055424;28;20480;-79
2022/10/15 07:22:57;;;;;;;77.10;36.15;;;12.30;99.90;;;;;;5055627;28;20040;-78
2022/10/15 07:25:23;;;;;;;77.82;32.97;;;12.30;99.90;;;;;;5055152;28;20106;-80
2022/10/15 07:27:49;;;;;;;75.47;34.17;;;12.40;99.90;;;;;;5055473;28;20146;-80
2022/10/15 07:30:15;;;;;;;77.18;33.88;;;12.40;99.90;;;;;;5055562;28;20492;-80
2022/10/15 07:32:40;;;;;;;61.83;27.75;;;12.40;99.90;;;;;;5071673;28;20115;-80
2022/10/15 07:35:06;;;;;;;70.18;31.80;;;12.50;99.90;;;;;;5072155;28;20120;-80
2022/10/15 07:37:32;;;;;;;68.55;31.15;;;12.50;99.90;;;;;;5054016;28;20098;-80
2022/10/15 07:39:58;;;;;;;72.60;32.47;;;12.50;99.90;;;;;;5072001;28;20041;-80
2022/10/15 07:42:24;;;;;;;72.00;33.17;;;12.50;99.90;;;;;;5072092;28;20036;-80
2022/10/15 07:44:49;;;;;;;73.80;33.47;;;12.50;99.90;;;;;;5054924;28;20048;-81
2022/10/15 07:47:15;;;;;;;70.70;32.60;;;12.50;99.90;;;;;;5055415;28;20071;-81
2022/10/15 07:49:41;;;;;;;68.75;32.70;;;12.60;99.90;;;;;;5071440;28;20482;-81
2022/10/15 07:52:07;;;;;;;69.13;34.15;;;12.80;99.90;;;;;;5071739;28;20150;-81
2022/10/15 07:54:33;;;;;;;;;;;13.10;99.90;;;;;;5055048;28;20044;-80
2022/10/15 07:56:59;;;;;;;58.53;30.08;;;13.50;99.90;;;;;;5070997;28;19923;-81
2022/10/15 07:59:24;;;;;;;47.65;27.60;;;13.80;99.90;;;;;;5070313;28;20082;-81
2022/10/15 08:01:50;;;;;;;50.30;27.80;;;14.30;99.90;;;;;;5070161;28;20043;-81
2022/10/15 08:04:16;;;;;;;42.60;26.35;;;14.70;99.90;;;;;;5054178;28;20132;-81
2022/10/15 08:06:42;;;;;;;47.28;27.02;;;14.90;99.90;;;;;;5070770;28;20036;-81
2022/10/15 08:09:07;;;;;;;44.33;26.77;;;15.20;99.90;;;;;;5071258;28;20040;-81
2022/10/15 08:11:33;;;;;;;43.00;27.08;;;15.10;99.90;;;;;;5053916;28;20298;-81
2022/10/15 08:13:59;;;;;;;41.78;26.27;;;15.00;99.90;;;;;;5070994;28;20055;-81
2022/10/15 08:16:25;;;;;;;41.28;25.13;;;14.80;99.90;;;;;;5071217;28;20123;-81
2022/10/15 08:18:50;;;;;;;46.33;27.02;;;14.70;99.90;;;;;;5071743;28;20055;-83
2022/10/15 08:21:16;;;;;;;43.85;25.00;;;14.60;99.90;;;;;;5070870;28;20044;-78
2022/10/15 08:23:41;;;;;;;47.43;26.73;;;14.50;99.90;;;;;;5054514;28;20037;-78
2022/10/15 08:26:07;;;;;;;46.63;28.00;;;14.40;99.90;;;;;;5070731;28;20323;-77
2022/10/15 08:28:34;;;;;;;43.28;25.55;;;14.40;99.90;;;;;;5037511;28;20041;-77
2022/10/15 08:31:01;;;;;;;45.97;23.98;;;14.30;99.90;;;;;;5070167;28;20127;-77
2022/10/15 08:33:27;;;;;;;;;;;14.40;99.90;;;;;;5070971;28;20049;-78
2022/10/15 08:35:53;;;;;;;43.03;24.92;;;14.40;99.90;;;;;;5054103;28;20011;-79
2022/10/15 08:38:18;;;;;;;41.78;26.15;;;14.60;99.90;;;;;;5053783;28;20127;-78
2022/10/15 08:40:50;;;;;;;47.03;26.58;;;14.70;99.90;;;;;;5070637;28;20048;-78
2022/10/15 08:43:30;;;;;;;40.22;23.15;;;14.80;99.90;;;;;;5054280;28;20113;-79
2022/10/15 08:46:00;;;;;;;46.75;26.27;;;14.80;99.90;;;;;;5053859;28;20040;-79
2022/10/15 08:48:54;;;;;;;43.00;26.48;;;14.70;99.90;;;;;;5069906;28;20044;-78
2022/10/15 08:51:22;;;;;;;47.60;26.90;;;14.60;99.90;;;;;;5067964;28;20055;-77
2022/10/15 08:53:59;;;;;;;53.28;28.40;;;14.40;99.90;;;;;;5069716;28;20650;-78
2022/10/15 08:56:46;;;;;;;52.88;29.15;;;14.40;99.90;;;;;;5068751;28;20040;-78
2022/10/15 08:59:30;;;;;;;53.33;28.23;;;14.40;99.90;;;;;;5070183;28;20163;-78
2022/10/15 09:02:22;;;;;;;52.38;29.63;;;14.30;99.90;;;;;;5069280;28;20044;-77
2022/10/15 09:05:02;;;;;;;53.85;29.98;;;14.30;99.90;;;;;;5070138;28;20045;-81
2022/10/15 09:07:45;;;;;;;54.58;31.60;;;14.20;99.90;;;;;;5068721;28;20033;-78
2022/10/15 09:10:16;;;;;;;49.63;27.30;;;14.30;99.90;;;;;;5069617;28;20043;-77
2022/10/15 09:12:50;;;;;;;50.38;28.10;;;14.30;99.90;;;;;;5067655;28;20067;-78
2022/10/15 09:15:20;;;;;;;51.72;28.20;;;14.20;99.90;;;;;;5068866;28;20032;-77
2022/10/15 09:17:49;;;;;;;41.53;22.00;;;14.20;99.90;;;;;;5070067;28;20773;-78
2022/10/15 09:20:30;;;;;;;42.05;22.25;;;14.30;99.90;;;;;;5069835;28;20120;-78
2022/10/15 09:22:56;;;;;;;44.55;24.50;;;14.30;99.90;;;;;;5052826;28;20408;-80
2022/10/15 09:25:23;;;;;;;46.25;25.17;;;14.30;99.90;;;;;;5069916;28;20040;-78
2022/10/15 09:27:50;;;;;;;44.03;24.77;;;14.20;99.90;;;;;;5069681;28;20052;-80
2022/10/15 09:30:23;;;;;;;44.63;23.90;;;14.20;99.90;;;;;;5053197;28;20075;-78
2022/10/15 09:33:01;;;;;;;44.63;23.92;;;14.10;99.90;;;;;;5070048;28;20402;-80
2022/10/15 09:35:41;;;;;;;38.25;21.05;;;14.20;99.90;;;;;;5069587;28;20104;-80
2022/10/15 09:38:16;;;;;;;39.17;20.98;;;14.20;99.90;;;;;;5051468;28;20048;-79
2022/10/15 09:41:15;;;;;;;44.22;23.65;;;14.20;99.90;;;;;;5053114;28;20068;-80
2022/10/15 09:43:44;;;;;;;38.75;22.27;;;14.00;99.90;;;;;;5052966;28;20090;-79
2022/10/15 09:46:10;;;;;;;41.80;23.23;;;13.90;99.90;;;;;;5069493;28;20480;-79
2022/10/15 09:48:51;;;;;;;38.63;20.98;;;13.90;99.90;;;;;;5052321;28;20052;-78
2022/10/15 09:51:36;;;;;;;40.28;23.45;;;13.90;99.90;;;;;;5069333;28;20067;-79
2022/10/15 09:54:18;;;;;;;45.30;24.27;;;13.90;99.90;;;;;;5052068;28;20056;-78
2022/10/15 09:56:54;;;;;;;43.28;22.63;;;13.80;99.90;;;;;;5052943;28;20039;-79
2022/10/15 09:59:22;;;;;;;52.20;26.23;;;13.80;99.90;;;;;;5068351;28;20036;-79
2022/10/15 10:02:13;;;;;;;46.85;23.30;;;13.80;99.90;;;;;;5069328;28;20072;-79
2022/10/15 10:04:39;;;;;;;46.00;23.42;;;13.80;99.90;;;;;;5066614;28;20512;-80
2022/10/15 10:07:06;;;;;;;47.97;23.73;;;13.80;99.90;;;;;;5068938;28;20068;-79
2022/10/15 10:09:56;;;;;;;44.38;22.38;;;13.80;99.90;;;;;;5069008;28;20033;-79
2022/10/15 10:12:26;;;;;;;52.05;26.00;;;13.80;99.90;;;;;;5066860;28;20052;-79
2022/10/15 10:15:04;;;;;;;47.65;23.10;;;13.70;99.90;;;;;;5069604;28;20043;-80
2022/10/15 10:17:30;;;;;;;46.55;21.10;;;13.70;99.90;;;;;;5069618;28;20491;-80
2022/10/15 10:20:09;;;;;;;45.00;23.08;;;13.70;99.90;;;;;;5052431;28;20098;-81
2022/10/15 10:22:45;;;;;;;44.72;22.70;;;13.70;99.90;;;;;;5069126;28;20055;-80
2022/10/15 10:25:31;;;;;;;45.88;22.80;;;13.60;99.90;;;;;;5069993;28;20067;-79
2022/10/15 10:28:03;;;;;;;47.22;20.38;;;13.60;99.90;;;;;;5067539;28;20097;-79
2022/10/15 10:30:48;;;;;;;43.72;22.00;;;13.60;99.90;;;;;;5067108;28;20066;-80
2022/10/15 10:33:38;;;;;;;37.40;18.63;;;13.70;99.90;;;;;;5069117;28;20052;-80
2022/10/15 10:36:05;;;;;;;31.52;16.02;;;13.70;99.90;;;;;;5068468;28;20049;-80
2022/10/15 10:38:33;;;;;;;31.75;17.17;;;13.70;99.90;;;;;;5052517;28;20070;-80
2022/10/15 10:41:08;;;;;;;31.73;16.75;;;13.80;99.90;;;;;;5069123;28;20040;-80
2022/10/15 10:43:39;;;;;;;31.80;16.77;;;13.80;99.90;;;;;;5069475;28;20045;-80
2022/10/15 10:46:17;;;;;;;28.30;15.30;;;13.90;99.90;;;;;;5068598;28;20037;-80
2022/10/15 10:48:45;;;;;;;25.92;14.45;;;14.00;99.90;;;;;;5052980;28;20469;-81
2022/10/15 10:51:21;;;;;;;25.92;14.80;;;14.20;99.90;;;;;;5066987;28;20514;-80
2022/10/15 10:53:47;;;;;;;24.55;14.40;;;14.30;99.90;;;;;;5069132;28;20055;-79
2022/10/15 10:56:14;;;;;;;25.17;14.67;;;14.30;99.90;;;;;;5052104;28;20391;-80
2022/10/15 10:58:41;;;;;;;24.38;15.10;;;14.40;99.90;;;;;;5069380;28;20389;-79
2022/10/15 11:01:12;;;;;;;22.02;13.27;;;14.40;99.90;;;;;;5068419;28;20044;-79
2022/10/15 11:03:47;;;;;;;25.08;14.10;;;14.50;99.90;;;;;;5068985;28;20457;-80
2022/10/15 11:06:44;;;;;;;22.77;13.82;;;14.50;99.90;;;;;;5068447;28;20130;-80
2022/10/15 11:09:40;;;;;;;20.67;12.02;;;14.60;99.90;;;;;;5066576;28;20036;-80
2022/10/15 11:12:37;;;;;;;23.67;12.68;;;14.60;99.90;;;;;;5071533;28;20052;-80
2022/10/15 11:15:24;;;;;;;20.85;12.05;;;14.60;99.90;;;;;;5072570;28;20457;-80
2022/10/15 11:18:24;;;;;;;19.17;10.30;;;14.60;99.90;;;;;;5055756;28;20459;-80
2022/10/15 11:21:06;;;;;;;20.67;12.50;;;14.70;99.90;;;;;;5072475;28;20044;-80
2022/10/15 11:23:52;;;;;;;19.13;11.52;;;14.90;99.90;;;;;;5071775;28;20044;-80
2022/10/15 11:26:32;;;;;;;19.50;11.30;;;15.00;99.90;;;;;;5070344;28;20416;-80
2022/10/15 11:29:18;;;;;;;18.58;11.50;;;15.00;99.90;;;;;;5070163;28;20043;-80
2022/10/15 11:31:57;;;;;;;20.50;11.50;;;15.10;99.90;;;;;;5070699;28;20107;-80
2022/10/15 11:34:51;;;;;;;20.63;11.95;;;15.20;99.90;;;;;;5055278;28;20435;-80
2022/10/15 11:37:25;;;;;;;19.92;11.90;;;15.20;99.90;;;;;;5069723;28;20076;-80
2022/10/15 11:40:14;;;;;;;18.05;11.00;;;15.10;99.90;;;;;;5071896;28;20052;-80
2022/10/15 11:42:56;;;;;;;20.35;12.30;;;15.20;99.90;;;;;;5071772;28;20048;-80
2022/10/15 11:45:49;;;;;;;17.20;11.32;;;15.20;99.90;;;;;;5054793;28;20047;-80
2022/10/15 11:48:27;;;;;;;19.42;11.88;;;15.20;99.90;;;;;;5070746;28;20508;-80
2022/10/15 11:50:56;;;;;;;19.98;12.23;;;15.20;99.90;;;;;;5072030;28;20097;-80
2022/10/15 11:53:46;;;;;;;19.48;11.88;;;15.20;99.90;;;;;;5054570;28;20541;-80
2022/10/15 11:56:17;;;;;;;19.30;12.95;;;15.20;99.90;;;;;;5069959;28;21141;-80
2022/10/15 11:58:53;;;;;;;17.60;11.73;;;15.30;99.90;;;;;;5071555;28;20049;-80
2022/10/15 12:01:47;;;;;;;19.48;11.23;;;15.40;99.90;;;;;;5054904;28;20737;-80
2022/10/15 12:04:33;;;;;;;17.92;11.90;;;15.50;99.90;;;;;;5071149;28;20040;-80
2022/10/15 12:07:03;;;;;;;19.08;11.23;;;15.60;99.90;;;;;;5070765;28;20095;-80
2022/10/15 12:09:34;;;;;;;19.73;11.90;;;15.60;99.90;;;;;;5071382;28;20473;-80
2022/10/15 12:12:16;;;;;;;20.63;12.43;;;15.70;99.90;;;;;;5070710;28;20047;-80
2022/10/15 12:14:49;;;;;;;19.17;12.40;;;15.70;99.90;;;;;;5052178;28;20033;-80
2022/10/15 12:17:21;;;;;;;25.30;12.23;;;15.70;99.90;;;;;;5054244;28;20040;-80
2022/10/15 12:19:55;;;;;;;19.70;11.30;;;15.70;99.90;;;;;;5071387;28;20544;-80
2022/10/15 12:22:46;;;;;;;17.45;11.88;;;15.70;99.90;;;;;;5070209;28;20040;-80
2022/10/15 12:25:34;;;;;;;16.35;10.93;;;15.70;99.90;;;;;;5053233;28;20045;-80
2022/10/15 12:27:59;;;;;;;16.23;11.02;;;15.70;99.90;;;;;;5070759;28;20050;-80
2022/10/15 12:30:27;;;;;;;16.73;10.63;;;15.70;99.90;;;;;;5070410;28;20040;-80
2022/10/15 12:32:53;;;;;;;15.73;10.48;;;15.70;99.90;;;;;;5070928;28;20040;-80
2022/10/15 12:35:24;;;;;;;15.88;10.30;;;15.80;99.90;;;;;;5053987;28;20036;-81
2022/10/15 12:37:50;;;;;;;16.83;10.27;;;15.70;99.90;;;;;;5068893;28;20053;-81
2022/10/15 12:40:28;;;;;;;16.67;10.38;;;15.70;99.90;;;;;;5070835;28;20036;-80
2022/10/15 12:43:02;;;;;;;15.27;10.45;;;15.70;99.90;;;;;;5069597;28;20040;-80
2022/10/15 12:45:38;;;;;;;15.75;10.82;;;15.70;99.90;;;;;;5068000;28;20072;-80
2022/10/15 12:48:03;;;;;;;17.42;11.50;;;15.70;99.90;;;;;;5070666;28;20052;-80
2022/10/15 12:50:34;;;;;;;17.17;11.20;;;15.70;99.90;;;;;;5053697;28;20132;-80